• Join FlightAware (Why Join?)
  • Login
  • US Flag 
09:29AM EDT


 

Airport Tracker/Info


-or-


 

Live Flight TrackerFlight Track Log ✈ AAL937 ✈ 05-Feb-2014 ✈ KMIA - MROC / SJO

Flight Track Log - Related Links

Times and Time Zones

All times are in EST time to prevent confusion due to time zone crossing. See the AAL937 flight status page for this flight to view local times or setup timezone preferences in your user account.

Time Position Orientation Groundspeed Altitude Reporting Facility
EST Latitude Longitude Course Direction KTS MPH feet Rate Location/Type
11:01AM 25.7961 -80.2722 207° Southwest 156 180 1,100  Level Miami Center
11:02AM 25.7864 -80.2372 107° East 196 226 2,200 2,160 Climbing Miami Center
11:03AM 25.7608 -80.1672 112° Southeast 275 316 4,600 2,400 Climbing Miami Center
11:04AM 25.5748 -80.2429 209° Southwest  Level FlightAware Approximate
11:04AM 25.7353 -80.0950 111° Southeast 281 323 6,900  Level Miami Center
11:04AM 25.7069 -80.0528 127° Southeast 270 311 7,100 60 Climbing Miami Center
11:05AM 25.4809 -80.3016 209° Southwest  Level FlightAware Approximate
11:05AM 25.6692 -80.0633 194° South 272 313 7,000  Level Miami Center
11:05AM 25.6417 -80.0811 210° Southwest 276 318 7,000 -120 Level Miami Center
11:06AM 25.3870 -80.3603 209° Southwest  Level FlightAware Approximate
11:06AM 25.5800 -80.1300 216° Southwest 287 330 6,900  Level Miami Center
11:07AM 25.2919 -80.4165 207° Southwest  Level FlightAware Approximate
11:07AM 25.5142 -80.1744 211° Southwest 287 330 8,100  Level Miami Center
11:08AM 25.4486 -80.2186 211° Southwest 287 330 10,800 1,920 Climbing Miami Center
11:09AM 25.3803 -80.2833 221° Southwest 299 344 12,000 1,860 Climbing Miami Center
11:10AM 25.3033 -80.3525 219° Southwest 333 383 14,600 2,340 Climbing Miami Center
11:11AM 25.2283 -80.4261 222° Southwest 355 409 16,700 1,800 Climbing Miami Center
11:12AM 25.1472 -80.4994 219° Southwest 372 428 18,300 1,740 Climbing Miami Center
11:13AM 25.0639 -80.5772 220° Southwest 385 443 20,200 1,800 Climbing Miami Center
11:14AM 24.9806 -80.6550 220° Southwest 392 451 22,000 1,740 Climbing Miami Center
11:15AM 24.8925 -80.7392 221° Southwest 403 464 23,700 1,620 Climbing Miami Center
11:16AM 24.8069 -80.8189 220° Southwest 403 464 25,300 1,560 Climbing Miami Center
11:17AM 24.7169 -80.9006 220° Southwest 414 476 26,900 1,560 Climbing Miami Center
11:18AM 24.6247 -80.9867 220° Southwest 419 482 28,500 1,500 Climbing Miami Center
11:19AM 24.5325 -81.0728 220° Southwest 432 497 29,900 1,380 Climbing Miami Center
11:20AM 24.4242 -81.1397 209° Southwest 443 510 31,300 1,500 Climbing Miami Center
11:21AM 24.2981 -81.1628 189° South 443 510 32,900 840 Climbing Miami Center
11:22AM 24.1742 -81.1858 190° South 443 510 33,000 300 Climbing Miami Center
11:23AM 24.0483 -81.2089 189° South 455 524 33,500 900 Climbing Miami Center
11:24AM 23.9242 -81.2364 191° South 455 524 34,900 1,380 Climbing Miami Center
11:27AM 23.6914 -81.2877 191° South  Level FlightAware Approximate
11:34AM 22.9081 -81.4848 196° South  Level FlightAware Approximate
11:35AM 22.7980 -81.5201 196° South  Level FlightAware Approximate
11:36AM 22.6877 -81.5553 196° South  Level FlightAware Approximate
11:37AM 22.5775 -81.5903 196° South  Level FlightAware Approximate
11:38AM 22.4670 -81.6243 196° South  Level FlightAware Approximate
11:39AM 22.3566 -81.6589 197° South  Level FlightAware Approximate
11:40AM 22.2469 -81.6955 197° South  Level FlightAware Approximate
11:41AM 22.1371 -81.7321 197° South  Level FlightAware Approximate
11:42AM 22.0273 -81.7686 197° South  Level FlightAware Approximate
11:43AM 21.9175 -81.8050 197° South  Level FlightAware Approximate
11:44AM 21.8076 -81.8414 197° South  Level FlightAware Approximate
11:45AM 21.6978 -81.8777 197° South  Level FlightAware Approximate
11:46AM 21.5880 -81.9140 197° South  Level FlightAware Approximate
11:47AM 21.4782 -81.9502 197° South  Level FlightAware Approximate
11:48AM 21.3683 -81.9864 197° South  Level FlightAware Approximate
11:49AM 21.2585 -82.0225 197° South  Level FlightAware Approximate
11:50AM 21.1486 -82.0586 197° South  Level FlightAware Approximate
11:51AM 21.0387 -82.0946 197° South  Level FlightAware Approximate
11:52AM 20.9289 -82.1305 197° South  Level FlightAware Approximate
11:53AM 20.8190 -82.1664 197° South  Level FlightAware Approximate
11:54AM 20.7091 -82.2023 197° South  Level FlightAware Approximate
11:55AM 20.5992 -82.2381 197° South  Level FlightAware Approximate
11:56AM 20.4893 -82.2738 197° South  Level FlightAware Approximate
11:57AM 20.3794 -82.3095 197° South  Level FlightAware Approximate
11:58AM 20.2694 -82.3452 197° South  Level FlightAware Approximate
11:59AM 20.1595 -82.3808 197° South  Level FlightAware Approximate
12:00PM 20.0477 -82.4043 192° South  Level FlightAware Approximate
12:01PM 19.9354 -82.4297 192° South  Level FlightAware Approximate
12:02PM 19.8230 -82.4551 192° South  Level FlightAware Approximate
12:03PM 19.7106 -82.4805 192° South  Level FlightAware Approximate
12:04PM 19.5982 -82.5058 192° South  Level FlightAware Approximate
12:05PM 19.4859 -82.5315 192° South  Level FlightAware Approximate
12:06PM 19.3737 -82.5575 192° South  Level FlightAware Approximate
12:07PM 19.2614 -82.5835 192° South  Level FlightAware Approximate
12:08PM 19.1492 -82.6094 192° South  Level FlightAware Approximate
12:09PM 19.0369 -82.6353 192° South  Level FlightAware Approximate
12:10PM 18.9247 -82.6612 192° South  Level FlightAware Approximate
12:11PM 18.8124 -82.6870 192° South  Level FlightAware Approximate
12:12PM 18.7001 -82.7128 192° South  Level FlightAware Approximate
12:13PM 18.5878 -82.7381 192° South  Level FlightAware Approximate
12:14PM 18.4754 -82.7634 192° South  Level FlightAware Approximate
12:15PM 18.3631 -82.7886 192° South  Level FlightAware Approximate
12:16PM 18.2507 -82.8137 192° South  Level FlightAware Approximate
12:17PM 18.1383 -82.8388 192° South  Level FlightAware Approximate
12:18PM 18.0259 -82.8639 192° South  Level FlightAware Approximate
12:19PM 17.9135 -82.8890 192° South  Level FlightAware Approximate
12:20PM 17.8011 -82.9140 192° South  Level FlightAware Approximate
12:21PM 17.6887 -82.9390 192° South  Level FlightAware Approximate
12:22PM 17.5763 -82.9640 192° South  Level FlightAware Approximate
12:23PM 17.4639 -82.9889 192° South  Level FlightAware Approximate
12:24PM 17.3515 -83.0138 192° South  Level FlightAware Approximate
12:25PM 17.2391 -83.0387 192° South  Level FlightAware Approximate
12:26PM 17.1267 -83.0635 192° South  Level FlightAware Approximate
12:27PM 17.0143 -83.0884 192° South  Level FlightAware Approximate
12:28PM 16.9019 -83.1131 192° South  Level FlightAware Approximate
12:29PM 16.7895 -83.1379 192° South  Level FlightAware Approximate
12:30PM 16.6770 -83.1626 192° South  Level FlightAware Approximate
12:31PM 16.5646 -83.1873 192° South  Level FlightAware Approximate
12:32PM 16.4522 -83.2120 192° South  Level FlightAware Approximate
12:33PM 16.3398 -83.2366 192° South  Level FlightAware Approximate
12:34PM 16.2273 -83.2613 192° South  Level FlightAware Approximate
12:35PM 16.1149 -83.2858 192° South  Level FlightAware Approximate
12:36PM 16.0023 -83.3095 191° South  Level FlightAware Approximate
12:37PM 15.8895 -83.3321 191° South  Level FlightAware Approximate
12:38PM 15.7767 -83.3547 191° South  Level FlightAware Approximate
12:39PM 15.6638 -83.3772 191° South  Level FlightAware Approximate
12:40PM 15.5510 -83.3997 191° South  Level FlightAware Approximate
12:41PM 15.4382 -83.4222 191° South  Level FlightAware Approximate
12:42PM 15.3253 -83.4446 191° South  Level FlightAware Approximate
12:43PM 15.2125 -83.4671 191° South  Level FlightAware Approximate
12:44PM 15.0997 -83.4895 191° South  Level FlightAware Approximate
12:45PM 14.9868 -83.5118 191° South  Level FlightAware Approximate
12:46PM 14.8740 -83.5342 191° South  Level FlightAware Approximate
12:47PM 14.7612 -83.5565 191° South  Level FlightAware Approximate
12:48PM 14.6483 -83.5788 191° South  Level FlightAware Approximate
12:49PM 14.5355 -83.6011 191° South  Level FlightAware Approximate
12:50PM 14.4226 -83.6234 191° South  Level FlightAware Approximate
12:51PM 14.3098 -83.6456 191° South  Level FlightAware Approximate
12:52PM 14.1969 -83.6678 191° South  Level FlightAware Approximate
12:53PM 14.0841 -83.6900 191° South  Level FlightAware Approximate
12:54PM 13.9712 -83.7124 191° South  Level FlightAware Approximate
12:55PM 13.8585 -83.7351 192° South  Level FlightAware Approximate
12:56PM 13.7461 -83.7595 192° South  Level FlightAware Approximate
12:57PM 13.6336 -83.7839 192° South  Level FlightAware Approximate
12:58PM 13.5212 -83.8083 192° South  Level FlightAware Approximate
12:59PM 13.4088 -83.8326 192° South  Level FlightAware Approximate
01:00PM 13.2964 -83.8570 192° South  Level FlightAware Approximate
01:01PM 13.1840 -83.8813 192° South  Level FlightAware Approximate
01:02PM 13.0715 -83.9056 192° South  Level FlightAware Approximate
01:03PM 12.9591 -83.9298 192° South  Level FlightAware Approximate
01:04PM 12.8467 -83.9541 192° South  Level FlightAware Approximate
01:05PM 12.7342 -83.9783 192° South  Level FlightAware Approximate
01:06PM 12.6218 -84.0027 193° South  Level FlightAware Approximate
01:07PM 12.5098 -84.0285 193° South  Level FlightAware Approximate
01:08PM 12.3977 -84.0544 193° South  Level FlightAware Approximate
01:09PM 12.2856 -84.0803 193° South  Level FlightAware Approximate
01:10PM 12.1732 -84.1047 190° South  Level FlightAware Approximate
01:11PM 12.0600 -84.1247 190° South  Level FlightAware Approximate
01:12PM 11.9468 -84.1447 190° South  Level FlightAware Approximate
01:13PM 11.8339 -84.1665 191° South  Level FlightAware Approximate
01:14PM 11.7218 -84.1918 190° South  Level FlightAware Approximate
01:15PM 11.6088 -84.2130 190° South  Level FlightAware Approximate
01:16PM 11.4958 -84.2343 193° South  Level FlightAware Approximate
01:17PM 11.3839 -84.2607 193° South  Level FlightAware Approximate
01:18PM 11.2719 -84.2870 193° South  Level FlightAware Approximate
01:19PM 11.1597 -84.3120 192° South  Level FlightAware Approximate
01:20PM 11.0472 -84.3357 192° South  Level FlightAware Approximate
01:21PM 10.9347 -84.3594 192° South  Level FlightAware Approximate
01:22PM 10.8217 -84.3809 190° South  Level FlightAware Approximate
01:23PM 10.7087 -84.4018 192° South  Level FlightAware Approximate
01:24PM 10.5965 -84.4267 192° South  Level FlightAware Approximate
01:25PM 10.4847 -84.4538 194° South  Level FlightAware Approximate
01:26PM 10.3800 -84.4346 149° Southeast  Level FlightAware Approximate
01:27PM 10.2818 -84.3740 148° Southeast  Level FlightAware Approximate